Terminal Aerodrome Forecast
Issued by NWS

Current Version | Previous Version | Text Only | Print | Product List | Glossary Off
Versions: 1 2 3 4 5 6 7 8 9 10 11 12 13 14 15

000
FTUS42 KILM 170500
TAFCRE
TAF
KCRE 170529Z 1706/1806 VRB03KT 4SM BR VCSH FEW030 BKN120
      TEMPO 1706/1710 2SM BR BKN002
     FM171000 03003KT P6SM SCT020 BKN100
     FM171300 06005KT P6SM BKN020
     FM171700 09006KT P6SM SCT020 BKN040=

USA.gov is the U.S. government's official web portal to all federal, state and local government web resources and services.